Time;durP1;ratioP1;P1;durP2;ratioP2;P2;SDS_P1;SDS_P2;PMS_P1;PMS_P2;Temp;Humidity;BMP_temperature;BMP_pressure;BME280_temperature;BME280_humidity;BME280_pressure;Samples;Min_cycle;Max_cycle;Signal;HPM_P1;HPM_P2
2023/08/31 00:00:33;;;;;;;10.60;7.30;;;;;;;15.44;100.00;98243.73;107869;1288;22277;-44
2023/08/31 00:02:59;;;;;;;8.40;6.90;;;;;;;15.45;100.00;98245.11;107849;1308;22922;-44
2023/08/31 00:05:28;;;;;;;13.30;7.70;;;;;;;15.43;100.00;98243.66;107815;1308;22333;-40
2023/08/31 00:07:53;;;;;;;8.80;7.20;;;;;;;15.41;100.00;98240.73;107853;1308;22453;-42
2023/08/31 00:10:18;;;;;;;9.10;7.20;;;;;;;15.41;100.00;98245.14;107828;1308;22917;-42
2023/08/31 00:12:44;;;;;;;12.70;7.80;;;;;;;15.40;100.00;98244.52;107850;1308;22255;-46
2023/08/31 00:15:09;;;;;;;7.90;6.90;;;;;;;15.39;100.00;98249.20;107855;1308;22117;-45
2023/08/31 00:17:35;;;;;;;8.30;7.50;;;;;;;15.35;100.00;98248.80;107848;1308;22695;-44
2023/08/31 00:20:00;;;;;;;10.80;7.50;;;;;;;15.32;100.00;98249.98;107840;1308;22230;-43
2023/08/31 00:22:25;;;;;;;11.30;7.90;;;;;;;15.33;100.00;98250.58;107850;1308;23095;-42
2023/08/31 00:24:51;;;;;;;8.50;7.50;;;;;;;15.31;100.00;98257.58;107824;1308;22322;-49
2023/08/31 00:27:17;;;;;;;10.40;7.80;;;;;;;15.31;100.00;98258.73;107846;1308;23170;-42
2023/08/31 00:29:45;;;;;;;8.00;7.20;;;;;;;15.30;100.00;98261.47;107848;1308;22382;-47
2023/08/31 00:32:11;;;;;;;11.00;8.00;;;;;;;15.26;100.00;98260.75;107865;1308;22890;-43
2023/08/31 00:34:37;;;;;;;8.80;7.40;;;;;;;15.25;100.00;98260.27;107829;1308;22240;-43
2023/08/31 00:37:02;;;;;;;10.50;7.40;;;;;;;15.25;100.00;98257.99;107836;1308;22303;-48
2023/08/31 00:39:27;;;;;;;10.60;7.40;;;;;;;15.26;100.00;98260.45;107848;1308;22532;-43
2023/08/31 00:41:53;;;;;;;10.80;7.70;;;;;;;15.24;100.00;98260.30;107849;1308;23018;-45
2023/08/31 00:44:18;;;;;;;9.50;7.30;;;;;;;15.23;100.00;98254.46;107851;1308;24384;-47
2023/08/31 00:46:43;;;;;;;8.70;7.10;;;;;;;15.24;100.00;98253.13;107868;1308;22346;-50
2023/08/31 00:49:09;;;;;;;14.00;7.50;;;;;;;15.24;100.00;98250.16;107832;1308;22255;-45
2023/08/31 00:51:35;;;;;;;9.40;7.10;;;;;;;15.22;100.00;98248.92;107869;1308;22424;-45
2023/08/31 00:54:00;;;;;;;7.50;6.80;;;;;;;15.21;100.00;98244.23;107834;1308;22220;-45
2023/08/31 00:56:28;;;;;;;7.70;6.40;;;;;;;15.20;100.00;98243.10;107790;1299;22281;-45
2023/08/31 00:58:54;;;;;;;11.20;6.80;;;;;;;15.15;100.00;98241.23;107848;1308;22873;-44
2023/08/31 01:01:42;;;;;;;8.10;7.00;;;;;;;15.15;100.00;98240.73;107842;1308;23032;-50
2023/08/31 01:04:33;;;;;;;9.90;6.30;;;;;;;15.16;100.00;98240.28;107842;1308;22423;-47
2023/08/31 01:07:20;;;;;;;9.00;7.40;;;;;;;15.15;100.00;98239.51;107824;1308;22122;-43
2023/08/31 01:09:45;;;;;;;14.60;6.40;;;;;;;15.15;100.00;98238.30;107829;1308;23282;-41
2023/08/31 01:12:33;;;;;;;6.70;5.80;;;;;;;15.15;100.00;98239.64;107827;1308;23289;-44
2023/08/31 01:15:09;;;;;;;7.80;6.40;;;;;;;15.14;100.00;98243.83;107832;1308;22278;-48
2023/08/31 01:17:45;;;;;;;6.10;5.50;;;;;;;15.13;100.00;98245.52;107867;1286;22407;-44
2023/08/31 01:20:15;;;;;;;9.60;6.30;;;;;;;15.12;100.00;98249.13;107822;1308;22262;-42
2023/08/31 01:22:51;;;;;;;7.00;6.20;;;;;;;15.13;100.00;98252.61;107837;1308;23202;-39
2023/08/31 01:25:17;;;;;;;10.30;6.50;;;;;;;15.10;100.00;98253.86;107838;1308;22492;-49
2023/08/31 01:27:43;;;;;;;8.20;6.00;;;;;;;15.09;100.00;98256.11;107829;1308;22287;-47
2023/08/31 01:30:09;;;;;;;6.90;6.10;;;;;;;15.09;100.00;98255.92;107842;1308;22408;-44
2023/08/31 01:32:34;;;;;;;7.50;6.40;;;;;;;15.07;100.00;98260.71;107828;1308;23183;-43
2023/08/31 01:35:05;;;;;;;7.50;6.10;;;;;;;15.06;100.00;98260.23;107857;1308;23146;-43
2023/08/31 01:37:53;;;;;;;6.90;5.60;;;;;;;15.08;100.00;98259.42;107869;1308;22434;-45
2023/08/31 01:40:33;;;;;;;8.40;6.10;;;;;;;15.06;100.00;98258.88;107855;1308;22244;-43
2023/08/31 01:43:01;;;;;;;9.80;6.20;;;;;;;15.05;100.00;98258.11;107822;1308;22248;-44
2023/08/31 01:45:26;;;;;;;;;;;;;;;15.03;100.00;98259.17;107863;1308;22478;-47
2023/08/31 01:47:52;;;;;;;10.50;6.50;;;;;;;15.00;100.00;98259.26;107858;1308;22194;-41
2023/08/31 01:50:17;;;;;;;9.70;6.40;;;;;;;15.00;100.00;98258.70;107858;1308;22234;-48
2023/08/31 01:52:43;;;;;;;7.00;6.30;;;;;;;14.99;100.00;98261.95;107834;1308;22279;-49
2023/08/31 01:55:08;;;;;;;13.80;7.80;;;;;;;14.98;100.00;98261.45;107837;1308;22346;-42
2023/08/31 01:57:34;;;;;;;11.90;6.20;;;;;;;15.00;100.00;98261.17;107850;1308;22486;-43
2023/08/31 02:00:00;;;;;;;13.90;7.70;;;;;;;15.00;100.00;98259.95;107841;1308;22711;-43
2023/08/31 02:02:25;;;;;;;7.50;6.70;;;;;;;15.01;100.00;98260.78;107822;1308;23007;-44
2023/08/31 02:04:51;;;;;;;11.10;6.80;;;;;;;14.98;100.00;98260.59;107845;1308;22507;-47
2023/08/31 02:07:17;;;;;;;8.20;7.00;;;;;;;14.97;100.00;98262.10;107828;1308;22243;-50
2023/08/31 02:09:43;;;;;;;9.00;7.00;;;;;;;14.98;100.00;98262.23;107852;1308;22477;-47
2023/08/31 02:12:11;;;;;;;8.20;6.70;;;;;;;14.97;100.00;98267.95;107827;1308;22255;-43
2023/08/31 02:14:36;;;;;;;10.20;7.40;;;;;;;14.97;100.00;98264.91;107817;1308;22240;-46
2023/08/31 02:17:02;;;;;;;8.30;7.50;;;;;;;14.98;100.00;98263.10;107857;1308;22273;-44
2023/08/31 02:19:27;;;;;;;9.30;7.80;;;;;;;14.98;100.00;98263.58;107858;1308;22231;-44
2023/08/31 02:21:53;;;;;;;9.40;6.80;;;;;;;14.99;100.00;98263.55;107849;1308;23125;-41
2023/08/31 02:24:18;;;;;;;10.60;7.70;;;;;;;14.98;100.00;98264.30;107855;1308;22231;-50
2023/08/31 02:26:43;;;;;;;8.40;6.70;;;;;;;15.00;100.00;98263.52;107829;1308;22704;-47
2023/08/31 02:29:08;;;;;;;7.90;7.10;;;;;;;15.00;100.00;98269.25;107822;1308;22226;-41
2023/08/31 02:31:34;;;;;;;9.80;7.30;;;;;;;15.01;100.00;98268.52;107876;1308;22515;-42
2023/08/31 02:33:59;;;;;;;12.90;7.70;;;;;;;15.01;100.00;98266.40;107849;1308;22397;-44
2023/08/31 02:36:24;;;;;;;8.10;7.20;;;;;;;15.01;100.00;98268.89;107853;1308;22370;-47
2023/08/31 02:38:50;;;;;;;12.30;7.80;;;;;;;15.01;100.00;98267.64;107841;1308;23046;-43
2023/08/31 02:44:00;;;;;;;9.80;7.50;;;;;;;15.04;100.00;98263.64;107004;1312;558022;-50
2023/08/31 02:46:25;;;;;;;11.90;8.40;;;;;;;15.02;100.00;98265.41;107259;1311;22562;-44
2023/08/31 02:48:51;;;;;;;10.90;7.90;;;;;;;15.03;100.00;98270.83;106838;1311;22974;-47
